Methuen, Massachusetts
Current Conditions -  °F | °C
As of 6:54 AM on Friday 21 Nov 2014 (Local Time) from KLWM Reporting Station
Clear Clear  
Wind Chill: 15°   Ceiling: Unl
Heat Index: 25°   Visibility: 10mi
Dew Point: 12°   Wind: 10mph
Humidity: 58%   Direction: 270°W
Pressure: 30.03"   Gusts: NA
Location:  42.73°N, 71.19°W
Report Text: KLWM 211154Z 27009KT 10SM CLR M04/M11 A3003 RMK AO2 SLP171 T10391111 11017 21039 53027
Loading
Personal Weather Stations






























Interactive Weather Map New forecast layout! Learn more

10-Day Weather Forecast

Advertisements
Track Severe Weather on mobile